Bulawayo, Zimbabwe
Current Conditions -  °F | °C
As of 9:00 PM on Monday 26 Jan 2015 (Local Time) from FBFT Reporting Station
Clear Clear  
Wind Chill: 73°   Ceiling: Unl
Heat Index: 73°   Visibility: 6mi
Dew Point: 50°   Wind: 2mph
Humidity: 44%   Direction: NA
Pressure: 29.97"   Gusts: NA
Location:  20.17°S, 28.58°E
Report Text: FBFT 261900Z VRB02KT CAVOK 23/10 Q1015
Loading
Personal Weather Stations






























Interactive Weather Map New forecast layout! Learn more

10-Day Weather Forecast

Advertisements
Track Severe Weather on mobile